sensor_id;sensor_type;location;lat;lon;timestamp;P1;durP1;ratioP1;P2;durP2;ratioP2
51943;SDS011;37969;53.132;6.370;2024-03-02T00:00:53;3.38;;;3.08;;
51943;SDS011;37969;53.132;6.370;2024-03-02T00:03:22;3.95;;;3.03;;
51943;SDS011;37969;53.132;6.370;2024-03-02T00:05:50;2.75;;;2.55;;
51943;SDS011;37969;53.132;6.370;2024-03-02T00:08:22;4.15;;;2.72;;
51943;SDS011;37969;53.132;6.370;2024-03-02T00:10:51;4.35;;;2.90;;
51943;SDS011;37969;53.132;6.370;2024-03-02T00:13:20;3.00;;;2.70;;
51943;SDS011;37969;53.132;6.370;2024-03-02T00:15:52;3.13;;;2.55;;
51943;SDS011;37969;53.132;6.370;2024-03-02T00:18:24;4.15;;;3.33;;
51943;SDS011;37969;53.132;6.370;2024-03-02T00:20:55;6.22;;;3.17;;
51943;SDS011;37969;53.132;6.370;2024-03-02T00:23:23;5.85;;;2.95;;
51943;SDS011;37969;53.132;6.370;2024-03-02T00:25:50;3.33;;;2.65;;
51943;SDS011;37969;53.132;6.370;2024-03-02T00:28:20;2.72;;;2.40;;
51943;SDS011;37969;53.132;6.370;2024-03-02T00:33:19;6.00;;;3.33;;
51943;SDS011;37969;53.132;6.370;2024-03-02T00:35:50;3.80;;;3.08;;
51943;SDS011;37969;53.132;6.370;2024-03-02T00:38:19;4.70;;;3.10;;
51943;SDS011;37969;53.132;6.370;2024-03-02T00:40:46;4.93;;;3.05;;
51943;SDS011;37969;53.132;6.370;2024-03-02T00:45:54;5.35;;;3.00;;
51943;SDS011;37969;53.132;6.370;2024-03-02T00:48:22;3.17;;;2.70;;
51943;SDS011;37969;53.132;6.370;2024-03-02T00:50:51;4.55;;;3.42;;
51943;SDS011;37969;53.132;6.370;2024-03-02T00:53:18;3.70;;;3.08;;
51943;SDS011;37969;53.132;6.370;2024-03-02T00:55:50;6.05;;;3.20;;
51943;SDS011;37969;53.132;6.370;2024-03-02T00:58:17;3.13;;;2.78;;
51943;SDS011;37969;53.132;6.370;2024-03-02T01:00:46;4.75;;;3.00;;
51943;SDS011;37969;53.132;6.370;2024-03-02T01:03:15;3.08;;;2.78;;
51943;SDS011;37969;53.132;6.370;2024-03-02T01:05:42;4.10;;;3.13;;
51943;SDS011;37969;53.132;6.370;2024-03-02T01:08:11;2.83;;;2.50;;
51943;SDS011;37969;53.132;6.370;2024-03-02T01:10:43;5.15;;;3.13;;
51943;SDS011;37969;53.132;6.370;2024-03-02T01:13:10;4.25;;;3.00;;
51943;SDS011;37969;53.132;6.370;2024-03-02T01:15:38;3.72;;;2.47;;
51943;SDS011;37969;53.132;6.370;2024-03-02T01:18:05;3.42;;;2.85;;
51943;SDS011;37969;53.132;6.370;2024-03-02T01:20:33;3.88;;;2.67;;
51943;SDS011;37969;53.132;6.370;2024-03-02T01:23:03;4.90;;;2.75;;
51943;SDS011;37969;53.132;6.370;2024-03-02T01:25:29;3.88;;;2.78;;
51943;SDS011;37969;53.132;6.370;2024-03-02T01:27:57;5.80;;;2.88;;
51943;SDS011;37969;53.132;6.370;2024-03-02T01:30:24;4.28;;;2.50;;
51943;SDS011;37969;53.132;6.370;2024-03-02T01:32:53;2.75;;;2.55;;
51943;SDS011;37969;53.132;6.370;2024-03-02T01:35:24;3.53;;;2.53;;
51943;SDS011;37969;53.132;6.370;2024-03-02T01:40:22;3.17;;;2.37;;
51943;SDS011;37969;53.132;6.370;2024-03-02T01:42:52;3.58;;;2.60;;
51943;SDS011;37969;53.132;6.370;2024-03-02T01:45:24;3.00;;;2.70;;
51943;SDS011;37969;53.132;6.370;2024-03-02T01:47:53;4.07;;;2.90;;
51943;SDS011;37969;53.132;6.370;2024-03-02T01:50:24;3.97;;;2.50;;
51943;SDS011;37969;53.132;6.370;2024-03-02T01:52:52;4.72;;;2.88;;
51943;SDS011;37969;53.132;6.370;2024-03-02T01:55:19;5.47;;;3.00;;
51943;SDS011;37969;53.132;6.370;2024-03-02T01:57:46;4.78;;;2.85;;
51943;SDS011;37969;53.132;6.370;2024-03-02T02:00:13;5.00;;;2.70;;
51943;SDS011;37969;53.132;6.370;2024-03-02T02:02:39;3.00;;;2.67;;
51943;SDS011;37969;53.132;6.370;2024-03-02T02:05:08;3.05;;;2.75;;
51943;SDS011;37969;53.132;6.370;2024-03-02T02:07:35;4.95;;;2.90;;
51943;SDS011;37969;53.132;6.370;2024-03-02T02:10:01;2.97;;;2.53;;
51943;SDS011;37969;53.132;6.370;2024-03-02T02:12:31;3.30;;;2.90;;
51943;SDS011;37969;53.132;6.370;2024-03-02T02:15:01;3.75;;;2.75;;
51943;SDS011;37969;53.132;6.370;2024-03-02T02:17:27;3.70;;;3.00;;
51943;SDS011;37969;53.132;6.370;2024-03-02T02:19:53;2.80;;;2.60;;
51943;SDS011;37969;53.132;6.370;2024-03-02T02:22:24;4.43;;;2.97;;
51943;SDS011;37969;53.132;6.370;2024-03-02T02:24:54;5.00;;;3.03;;
51943;SDS011;37969;53.132;6.370;2024-03-02T02:27:20;4.68;;;3.00;;
51943;SDS011;37969;53.132;6.370;2024-03-02T02:29:49;4.82;;;2.97;;
51943;SDS011;37969;53.132;6.370;2024-03-02T02:32:21;4.40;;;3.08;;
51943;SDS011;37969;53.132;6.370;2024-03-02T02:34:51;3.30;;;2.90;;
51943;SDS011;37969;53.132;6.370;2024-03-02T02:37:21;5.78;;;3.75;;
51943;SDS011;37969;53.132;6.370;2024-03-02T02:39:47;4.45;;;3.65;;
51943;SDS011;37969;53.132;6.370;2024-03-02T02:42:16;3.22;;;3.00;;
51943;SDS011;37969;53.132;6.370;2024-03-02T02:44:43;4.53;;;3.08;;
51943;SDS011;37969;53.132;6.370;2024-03-02T02:47:14;2.92;;;2.70;;
51943;SDS011;37969;53.132;6.370;2024-03-02T02:49:40;4.53;;;2.80;;
51943;SDS011;37969;53.132;6.370;2024-03-02T02:52:07;5.32;;;3.13;;
51943;SDS011;37969;53.132;6.370;2024-03-02T02:54:34;3.88;;;3.30;;
51943;SDS011;37969;53.132;6.370;2024-03-02T02:57:00;3.72;;;2.92;;
51943;SDS011;37969;53.132;6.370;2024-03-02T02:59:27;4.53;;;2.90;;
51943;SDS011;37969;53.132;6.370;2024-03-02T03:01:54;5.45;;;3.10;;
51943;SDS011;37969;53.132;6.370;2024-03-02T03:04:24;3.47;;;3.10;;
51943;SDS011;37969;53.132;6.370;2024-03-02T03:06:53;3.72;;;3.10;;
51943;SDS011;37969;53.132;6.370;2024-03-02T03:09:19;3.33;;;3.03;;
51943;SDS011;37969;53.132;6.370;2024-03-02T03:11:46;3.53;;;3.22;;
51943;SDS011;37969;53.132;6.370;2024-03-02T03:14:16;3.65;;;3.33;;
51943;SDS011;37969;53.132;6.370;2024-03-02T03:16:45;4.43;;;3.00;;
51943;SDS011;37969;53.132;6.370;2024-03-02T03:19:15;4.72;;;2.67;;
51943;SDS011;37969;53.132;6.370;2024-03-02T03:21:43;4.32;;;2.95;;
51943;SDS011;37969;53.132;6.370;2024-03-02T03:24:12;4.70;;;2.67;;
51943;SDS011;37969;53.132;6.370;2024-03-02T03:26:41;3.63;;;2.78;;
51943;SDS011;37969;53.132;6.370;2024-03-02T03:29:08;4.28;;;2.88;;
51943;SDS011;37969;53.132;6.370;2024-03-02T03:31:35;3.55;;;2.80;;
51943;SDS011;37969;53.132;6.370;2024-03-02T03:34:03;3.50;;;2.97;;
51943;SDS011;37969;53.132;6.370;2024-03-02T03:36:30;3.72;;;3.10;;
51943;SDS011;37969;53.132;6.370;2024-03-02T03:38:58;4.47;;;3.30;;
51943;SDS011;37969;53.132;6.370;2024-03-02T03:41:27;4.35;;;2.75;;
51943;SDS011;37969;53.132;6.370;2024-03-02T03:43:56;3.35;;;3.05;;
51943;SDS011;37969;53.132;6.370;2024-03-02T03:46:25;5.03;;;2.72;;
51943;SDS011;37969;53.132;6.370;2024-03-02T03:48:51;3.28;;;2.97;;
51943;SDS011;37969;53.132;6.370;2024-03-02T03:53:48;3.80;;;2.88;;
51943;SDS011;37969;53.132;6.370;2024-03-02T03:56:17;3.20;;;2.70;;
51943;SDS011;37969;53.132;6.370;2024-03-02T03:58:44;3.40;;;3.08;;
51943;SDS011;37969;53.132;6.370;2024-03-02T04:01:14;5.35;;;2.70;;
51943;SDS011;37969;53.132;6.370;2024-03-02T04:03:41;5.53;;;3.38;;
51943;SDS011;37969;53.132;6.370;2024-03-02T04:06:08;3.42;;;2.67;;
51943;SDS011;37969;53.132;6.370;2024-03-02T04:08:35;5.47;;;3.33;;
51943;SDS011;37969;53.132;6.370;2024-03-02T04:11:04;3.97;;;2.95;;
51943;SDS011;37969;53.132;6.370;2024-03-02T04:13:31;5.05;;;3.30;;
51943;SDS011;37969;53.132;6.370;2024-03-02T04:15:58;3.00;;;2.60;;
51943;SDS011;37969;53.132;6.370;2024-03-02T04:18:25;3.45;;;3.15;;
51943;SDS011;37969;53.132;6.370;2024-03-02T04:20:57;2.88;;;2.67;;
51943;SDS011;37969;53.132;6.370;2024-03-02T04:23:25;3.83;;;2.75;;
51943;SDS011;37969;53.132;6.370;2024-03-02T04:25:52;3.55;;;2.90;;
51943;SDS011;37969;53.132;6.370;2024-03-02T04:28:18;3.85;;;2.80;;
51943;SDS011;37969;53.132;6.370;2024-03-02T04:30:47;3.83;;;2.78;;
51943;SDS011;37969;53.132;6.370;2024-03-02T04:33:14;4.47;;;2.80;;
51943;SDS011;37969;53.132;6.370;2024-03-02T04:35:43;6.45;;;3.47;;
51943;SDS011;37969;53.132;6.370;2024-03-02T04:38:11;5.40;;;2.80;;
51943;SDS011;37969;53.132;6.370;2024-03-02T04:40:43;3.25;;;2.88;;
51943;SDS011;37969;53.132;6.370;2024-03-02T04:43:09;3.75;;;2.80;;
51943;SDS011;37969;53.132;6.370;2024-03-02T04:45:40;4.82;;;3.10;;
51943;SDS011;37969;53.132;6.370;2024-03-02T04:48:08;5.35;;;3.10;;
51943;SDS011;37969;53.132;6.370;2024-03-02T04:50:35;2.85;;;2.65;;
51943;SDS011;37969;53.132;6.370;2024-03-02T04:53:01;2.80;;;2.60;;
51943;SDS011;37969;53.132;6.370;2024-03-02T04:55:31;3.83;;;3.05;;
51943;SDS011;37969;53.132;6.370;2024-03-02T04:57:59;3.78;;;3.05;;
51943;SDS011;37969;53.132;6.370;2024-03-02T05:00:28;4.13;;;2.85;;
51943;SDS011;37969;53.132;6.370;2024-03-02T05:02:54;4.82;;;2.95;;
51943;SDS011;37969;53.132;6.370;2024-03-02T05:05:22;7.25;;;2.75;;
51943;SDS011;37969;53.132;6.370;2024-03-02T05:07:48;3.00;;;2.70;;
51943;SDS011;37969;53.132;6.370;2024-03-02T05:10:15;3.03;;;2.72;;
51943;SDS011;37969;53.132;6.370;2024-03-02T05:12:42;5.93;;;3.42;;
51943;SDS011;37969;53.132;6.370;2024-03-02T05:15:09;4.63;;;3.00;;
51943;SDS011;37969;53.132;6.370;2024-03-02T05:17:39;5.60;;;3.00;;
51943;SDS011;37969;53.132;6.370;2024-03-02T05:20:08;4.88;;;3.58;;
51943;SDS011;37969;53.132;6.370;2024-03-02T05:25:07;3.78;;;2.67;;
51943;SDS011;37969;53.132;6.370;2024-03-02T05:27:35;2.70;;;2.47;;
51943;SDS011;37969;53.132;6.370;2024-03-02T05:30:02;4.18;;;2.67;;
51943;SDS011;37969;53.132;6.370;2024-03-02T05:32:31;2.95;;;2.75;;
51943;SDS011;37969;53.132;6.370;2024-03-02T05:35:02;3.17;;;2.88;;
51943;SDS011;37969;53.132;6.370;2024-03-02T05:37:33;4.05;;;3.08;;
51943;SDS011;37969;53.132;6.370;2024-03-02T05:39:59;3.65;;;2.65;;
51943;SDS011;37969;53.132;6.370;2024-03-02T05:42:28;4.15;;;2.15;;
51943;SDS011;37969;53.132;6.370;2024-03-02T05:44:57;4.50;;;2.70;;
51943;SDS011;37969;53.132;6.370;2024-03-02T05:47:26;2.60;;;2.38;;
51943;SDS011;37969;53.132;6.370;2024-03-02T05:49:53;3.63;;;2.67;;
51943;SDS011;37969;53.132;6.370;2024-03-02T05:52:20;2.88;;;2.30;;
51943;SDS011;37969;53.132;6.370;2024-03-02T05:54:49;4.13;;;2.80;;
51943;SDS011;37969;53.132;6.370;2024-03-02T05:57:16;3.58;;;2.25;;
51943;SDS011;37969;53.132;6.370;2024-03-02T05:59:48;4.32;;;2.50;;
51943;SDS011;37969;53.132;6.370;2024-03-02T06:02:18;3.92;;;2.00;;
51943;SDS011;37969;53.132;6.370;2024-03-02T06:04:45;3.83;;;2.78;;
51943;SDS011;37969;53.132;6.370;2024-03-02T06:07:11;5.75;;;2.42;;
51943;SDS011;37969;53.132;6.370;2024-03-02T06:09:38;4.00;;;2.13;;
51943;SDS011;37969;53.132;6.370;2024-03-02T06:12:06;2.78;;;2.28;;
51943;SDS011;37969;53.132;6.370;2024-03-02T06:14:35;2.60;;;2.40;;
51943;SDS011;37969;53.132;6.370;2024-03-02T06:17:01;2.78;;;2.38;;
51943;SDS011;37969;53.132;6.370;2024-03-02T06:19:30;2.40;;;2.20;;
51943;SDS011;37969;53.132;6.370;2024-03-02T06:21:56;4.03;;;2.17;;
51943;SDS011;37969;53.132;6.370;2024-03-02T06:24:25;4.25;;;2.13;;
51943;SDS011;37969;53.132;6.370;2024-03-02T06:26:52;2.97;;;2.08;;
51943;SDS011;37969;53.132;6.370;2024-03-02T06:29:18;5.03;;;2.70;;
51943;SDS011;37969;53.132;6.370;2024-03-02T06:31:47;3.75;;;2.17;;
51943;SDS011;37969;53.132;6.370;2024-03-02T06:34:15;2.50;;;1.58;;
51943;SDS011;37969;53.132;6.370;2024-03-02T06:36:44;1.55;;;1.38;;
51943;SDS011;37969;53.132;6.370;2024-03-02T06:39:10;1.60;;;1.50;;
51943;SDS011;37969;53.132;6.370;2024-03-02T06:41:37;3.70;;;2.03;;
51943;SDS011;37969;53.132;6.370;2024-03-02T06:44:07;1.73;;;1.63;;
51943;SDS011;37969;53.132;6.370;2024-03-02T06:46:37;2.20;;;1.88;;
51943;SDS011;37969;53.132;6.370;2024-03-02T06:49:05;2.15;;;1.80;;
51943;SDS011;37969;53.132;6.370;2024-03-02T06:51:35;2.28;;;1.80;;
51943;SDS011;37969;53.132;6.370;2024-03-02T06:54:01;1.73;;;1.60;;
51943;SDS011;37969;53.132;6.370;2024-03-02T06:56:30;1.90;;;1.57;;
51943;SDS011;37969;53.132;6.370;2024-03-02T06:58:58;2.15;;;1.80;;
51943;SDS011;37969;53.132;6.370;2024-03-02T07:01:24;4.15;;;2.22;;
51943;SDS011;37969;53.132;6.370;2024-03-02T07:03:51;2.50;;;2.08;;
51943;SDS011;37969;53.132;6.370;2024-03-02T07:06:18;4.07;;;2.03;;
51943;SDS011;37969;53.132;6.370;2024-03-02T07:08:45;2.67;;;1.80;;
51943;SDS011;37969;53.132;6.370;2024-03-02T07:11:13;2.45;;;1.85;;
51943;SDS011;37969;53.132;6.370;2024-03-02T07:13:40;2.78;;;1.98;;
51943;SDS011;37969;53.132;6.370;2024-03-02T07:16:07;2.53;;;1.67;;
51943;SDS011;37969;53.132;6.370;2024-03-02T07:18:53;3.20;;;1.60;;
51943;SDS011;37969;53.132;6.370;2024-03-02T07:21:22;2.00;;;1.80;;
51943;SDS011;37969;53.132;6.370;2024-03-02T07:23:48;4.05;;;1.65;;
51943;SDS011;37969;53.132;6.370;2024-03-02T07:26:17;1.92;;;1.80;;
51943;SDS011;37969;53.132;6.370;2024-03-02T07:28:46;2.33;;;1.73;;
51943;SDS011;37969;53.132;6.370;2024-03-02T07:31:17;2.13;;;1.23;;
51943;SDS011;37969;53.132;6.370;2024-03-02T07:33:47;1.52;;;1.10;;
51943;SDS011;37969;53.132;6.370;2024-03-02T07:36:14;1.70;;;1.30;;
51943;SDS011;37969;53.132;6.370;2024-03-02T07:38:44;1.98;;;1.48;;
51943;SDS011;37969;53.132;6.370;2024-03-02T07:41:11;1.30;;;1.20;;
51943;SDS011;37969;53.132;6.370;2024-03-02T07:43:42;1.20;;;1.10;;
51943;SDS011;37969;53.132;6.370;2024-03-02T07:46:08;1.52;;;1.13;;
51943;SDS011;37969;53.132;6.370;2024-03-02T07:48:36;1.35;;;1.20;;
51943;SDS011;37969;53.132;6.370;2024-03-02T07:51:05;1.08;;;1.08;;
51943;SDS011;37969;53.132;6.370;2024-03-02T07:53:32;2.42;;;1.38;;
51943;SDS011;37969;53.132;6.370;2024-03-02T07:55:59;1.15;;;1.05;;
51943;SDS011;37969;53.132;6.370;2024-03-02T07:58:29;2.88;;;0.80;;
51943;SDS011;37969;53.132;6.370;2024-03-02T08:00:58;2.40;;;0.82;;
51943;SDS011;37969;53.132;6.370;2024-03-02T08:03:26;0.93;;;0.70;;
51943;SDS011;37969;53.132;6.370;2024-03-02T08:05:53;2.33;;;0.75;;
51943;SDS011;37969;53.132;6.370;2024-03-02T08:08:27;1.52;;;0.80;;
51943;SDS011;37969;53.132;6.370;2024-03-02T08:10:54;1.20;;;0.73;;
51943;SDS011;37969;53.132;6.370;2024-03-02T08:13:20;1.58;;;0.77;;
51943;SDS011;37969;53.132;6.370;2024-03-02T08:15:50;1.08;;;0.90;;
51943;SDS011;37969;53.132;6.370;2024-03-02T08:18:21;2.38;;;0.90;;
51943;SDS011;37969;53.132;6.370;2024-03-02T08:20:49;1.30;;;0.90;;
51943;SDS011;37969;53.132;6.370;2024-03-02T08:23:19;1.83;;;0.93;;
51943;SDS011;37969;53.132;6.370;2024-03-02T08:25:48;2.88;;;1.10;;
51943;SDS011;37969;53.132;6.370;2024-03-02T08:28:17;3.15;;;1.00;;
51943;SDS011;37969;53.132;6.370;2024-03-02T08:30:45;3.33;;;1.00;;
51943;SDS011;37969;53.132;6.370;2024-03-02T08:33:11;1.38;;;0.90;;
51943;SDS011;37969;53.132;6.370;2024-03-02T08:35:37;2.08;;;0.80;;
51943;SDS011;37969;53.132;6.370;2024-03-02T08:38:05;1.88;;;0.90;;
51943;SDS011;37969;53.132;6.370;2024-03-02T08:40:32;2.53;;;1.08;;
51943;SDS011;37969;53.132;6.370;2024-03-02T08:42:58;1.23;;;0.90;;
51943;SDS011;37969;53.132;6.370;2024-03-02T08:45:28;1.45;;;0.80;;
51943;SDS011;37969;53.132;6.370;2024-03-02T08:47:54;1.48;;;0.70;;
51943;SDS011;37969;53.132;6.370;2024-03-02T08:50:21;1.70;;;1.23;;
51943;SDS011;37969;53.132;6.370;2024-03-02T08:52:49;2.50;;;0.85;;
51943;SDS011;37969;53.132;6.370;2024-03-02T08:55:15;4.45;;;0.75;;
51943;SDS011;37969;53.132;6.370;2024-03-02T08:57:42;1.05;;;0.40;;
51943;SDS011;37969;53.132;6.370;2024-03-02T09:00:11;1.40;;;0.60;;
51943;SDS011;37969;53.132;6.370;2024-03-02T09:02:38;0.82;;;0.50;;
51943;SDS011;37969;53.132;6.370;2024-03-02T09:05:04;2.03;;;0.60;;
51943;SDS011;37969;53.132;6.370;2024-03-02T09:07:31;2.88;;;0.98;;
51943;SDS011;37969;53.132;6.370;2024-03-02T09:10:00;1.63;;;0.75;;
51943;SDS011;37969;53.132;6.370;2024-03-02T09:12:29;3.25;;;0.70;;
51943;SDS011;37969;53.132;6.370;2024-03-02T09:14:57;3.95;;;0.80;;
51943;SDS011;37969;53.132;6.370;2024-03-02T09:17:29;2.63;;;0.82;;
51943;SDS011;37969;53.132;6.370;2024-03-02T09:19:58;1.55;;;0.90;;
51943;SDS011;37969;53.132;6.370;2024-03-02T09:22:29;2.95;;;0.98;;
51943;SDS011;37969;53.132;6.370;2024-03-02T09:24:56;2.75;;;0.70;;
51943;SDS011;37969;53.132;6.370;2024-03-02T09:27:23;1.95;;;0.80;;
51943;SDS011;37969;53.132;6.370;2024-03-02T09:29:51;3.08;;;0.70;;
51943;SDS011;37969;53.132;6.370;2024-03-02T09:32:17;6.32;;;0.85;;
51943;SDS011;37969;53.132;6.370;2024-03-02T09:34:43;3.63;;;0.95;;
51943;SDS011;37969;53.132;6.370;2024-03-02T09:37:09;4.53;;;0.90;;
51943;SDS011;37969;53.132;6.370;2024-03-02T09:39:36;2.22;;;0.93;;
51943;SDS011;37969;53.132;6.370;2024-03-02T09:42:10;3.63;;;0.73;;
51943;SDS011;37969;53.132;6.370;2024-03-02T09:44:37;1.85;;;0.82;;
51943;SDS011;37969;53.132;6.370;2024-03-02T09:47:04;3.20;;;0.70;;
51943;SDS011;37969;53.132;6.370;2024-03-02T09:49:30;5.05;;;1.15;;
51943;SDS011;37969;53.132;6.370;2024-03-02T09:51:57;2.40;;;0.80;;
51943;SDS011;37969;53.132;6.370;2024-03-02T09:54:26;3.47;;;0.73;;
51943;SDS011;37969;53.132;6.370;2024-03-02T09:56:54;3.00;;;0.80;;
51943;SDS011;37969;53.132;6.370;2024-03-02T09:59:27;1.67;;;0.77;;
51943;SDS011;37969;53.132;6.370;2024-03-02T10:01:55;1.95;;;0.90;;
51943;SDS011;37969;53.132;6.370;2024-03-02T10:04:25;2.45;;;0.77;;
51943;SDS011;37969;53.132;6.370;2024-03-02T10:07:14;1.60;;;0.80;;
51943;SDS011;37969;53.132;6.370;2024-03-02T10:09:46;2.95;;;1.00;;
51943;SDS011;37969;53.132;6.370;2024-03-02T10:12:16;1.85;;;0.90;;
51943;SDS011;37969;53.132;6.370;2024-03-02T10:14:45;3.50;;;0.90;;
51943;SDS011;37969;53.132;6.370;2024-03-02T10:17:13;2.47;;;0.80;;
51943;SDS011;37969;53.132;6.370;2024-03-02T10:19:40;4.28;;;1.00;;
51943;SDS011;37969;53.132;6.370;2024-03-02T10:22:08;1.83;;;0.80;;
51943;SDS011;37969;53.132;6.370;2024-03-02T10:24:36;2.13;;;0.80;;
51943;SDS011;37969;53.132;6.370;2024-03-02T10:27:07;2.33;;;0.80;;
51943;SDS011;37969;53.132;6.370;2024-03-02T10:29:37;0.73;;;0.50;;
51943;SDS011;37969;53.132;6.370;2024-03-02T10:32:05;1.90;;;0.70;;
51943;SDS011;37969;53.132;6.370;2024-03-02T10:34:31;4.63;;;1.08;;
51943;SDS011;37969;53.132;6.370;2024-03-02T10:36:58;3.30;;;0.95;;
51943;SDS011;37969;53.132;6.370;2024-03-02T10:39:27;1.65;;;0.60;;
51943;SDS011;37969;53.132;6.370;2024-03-02T10:41:56;2.10;;;0.90;;
51943;SDS011;37969;53.132;6.370;2024-03-02T10:44:28;1.98;;;0.80;;
51943;SDS011;37969;53.132;6.370;2024-03-02T10:46:54;1.58;;;0.80;;
51943;SDS011;37969;53.132;6.370;2024-03-02T10:49:23;1.52;;;0.88;;
51943;SDS011;37969;53.132;6.370;2024-03-02T10:51:53;1.27;;;0.65;;
51943;SDS011;37969;53.132;6.370;2024-03-02T10:54:20;1.90;;;0.65;;
51943;SDS011;37969;53.132;6.370;2024-03-02T10:56:52;3.13;;;1.05;;
51943;SDS011;37969;53.132;6.370;2024-03-02T11:01:50;2.15;;;0.73;;
51943;SDS011;37969;53.132;6.370;2024-03-02T11:04:19;3.65;;;1.25;;
51943;SDS011;37969;53.132;6.370;2024-03-02T11:06:48;2.43;;;1.00;;
51943;SDS011;37969;53.132;6.370;2024-03-02T11:09:15;6.22;;;0.90;;
51943;SDS011;37969;53.132;6.370;2024-03-02T11:11:43;3.05;;;0.80;;
51943;SDS011;37969;53.132;6.370;2024-03-02T11:14:12;2.70;;;0.98;;
51943;SDS011;37969;53.132;6.370;2024-03-02T11:16:39;3.47;;;0.82;;
51943;SDS011;37969;53.132;6.370;2024-03-02T11:19:09;3.40;;;0.90;;
51943;SDS011;37969;53.132;6.370;2024-03-02T11:21:36;3.87;;;0.93;;
51943;SDS011;37969;53.132;6.370;2024-03-02T11:26:49;2.17;;;0.80;;
51943;SDS011;37969;53.132;6.370;2024-03-02T11:29:46;6.78;;;0.90;;
51943;SDS011;37969;53.132;6.370;2024-03-02T11:32:20;2.38;;;0.90;;
51943;SDS011;37969;53.132;6.370;2024-03-02T11:34:49;3.80;;;1.00;;
51943;SDS011;37969;53.132;6.370;2024-03-02T11:37:21;1.33;;;0.70;;
51943;SDS011;37969;53.132;6.370;2024-03-02T11:39:50;3.50;;;1.10;;
51943;SDS011;37969;53.132;6.370;2024-03-02T11:42:19;1.05;;;0.70;;
51943;SDS011;37969;53.132;6.370;2024-03-02T11:44:50;3.03;;;0.70;;
51943;SDS011;37969;53.132;6.370;2024-03-02T11:47:19;1.95;;;0.82;;
51943;SDS011;37969;53.132;6.370;2024-03-02T11:49:46;1.15;;;0.80;;
51943;SDS011;37969;53.132;6.370;2024-03-02T11:52:17;1.58;;;0.70;;
51943;SDS011;37969;53.132;6.370;2024-03-02T11:54:45;1.33;;;0.65;;
51943;SDS011;37969;53.132;6.370;2024-03-02T11:57:12;2.28;;;0.90;;
51943;SDS011;37969;53.132;6.370;2024-03-02T11:59:43;5.75;;;0.90;;
51943;SDS011;37969;53.132;6.370;2024-03-02T12:02:15;3.08;;;1.00;;
51943;SDS011;37969;53.132;6.370;2024-03-02T12:04:45;2.05;;;0.93;;
51943;SDS011;37969;53.132;6.370;2024-03-02T12:07:12;2.97;;;1.20;;
51943;SDS011;37969;53.132;6.370;2024-03-02T12:09:47;4.47;;;1.02;;
51943;SDS011;37969;53.132;6.370;2024-03-02T12:12:15;0.82;;;0.77;;
51943;SDS011;37969;53.132;6.370;2024-03-02T12:14:52;2.35;;;0.90;;
51943;SDS011;37969;53.132;6.370;2024-03-02T12:17:21;3.40;;;1.13;;
51943;SDS011;37969;53.132;6.370;2024-03-02T12:19:49;3.25;;;1.00;;
51943;SDS011;37969;53.132;6.370;2024-03-02T12:22:16;3.35;;;0.90;;
51943;SDS011;37969;53.132;6.370;2024-03-02T12:24:42;1.90;;;0.90;;
51943;SDS011;37969;53.132;6.370;2024-03-02T12:27:10;2.80;;;0.95;;
51943;SDS011;37969;53.132;6.370;2024-03-02T12:29:40;1.75;;;1.00;;
51943;SDS011;37969;53.132;6.370;2024-03-02T12:32:09;1.23;;;0.77;;
51943;SDS011;37969;53.132;6.370;2024-03-02T12:34:40;1.38;;;0.70;;
51943;SDS011;37969;53.132;6.370;2024-03-02T12:37:06;2.95;;;1.08;;
51943;SDS011;37969;53.132;6.370;2024-03-02T12:39:35;3.45;;;0.80;;
51943;SDS011;37969;53.132;6.370;2024-03-02T12:42:03;3.67;;;0.93;;
51943;SDS011;37969;53.132;6.370;2024-03-02T12:44:29;3.92;;;1.10;;
51943;SDS011;37969;53.132;6.370;2024-03-02T12:46:59;1.42;;;0.70;;
51943;SDS011;37969;53.132;6.370;2024-03-02T12:49:26;3.47;;;1.10;;
51943;SDS011;37969;53.132;6.370;2024-03-02T12:51:57;0.93;;;0.80;;
51943;SDS011;37969;53.132;6.370;2024-03-02T12:54:25;2.80;;;1.17;;
51943;SDS011;37969;53.132;6.370;2024-03-02T12:56:52;2.38;;;1.05;;
51943;SDS011;37969;53.132;6.370;2024-03-02T12:59:22;1.52;;;1.20;;
51943;SDS011;37969;53.132;6.370;2024-03-02T13:01:52;2.10;;;1.20;;
51943;SDS011;37969;53.132;6.370;2024-03-02T13:04:23;2.55;;;1.08;;
51943;SDS011;37969;53.132;6.370;2024-03-02T13:06:54;1.23;;;0.80;;
51943;SDS011;37969;53.132;6.370;2024-03-02T13:09:27;3.45;;;1.00;;
51943;SDS011;37969;53.132;6.370;2024-03-02T13:11:58;2.42;;;1.17;;
51943;SDS011;37969;53.132;6.370;2024-03-02T13:14:26;2.08;;;1.10;;
51943;SDS011;37969;53.132;6.370;2024-03-02T13:16:52;1.83;;;1.63;;
51943;SDS011;37969;53.132;6.370;2024-03-02T13:19:18;3.72;;;1.05;;
51943;SDS011;37969;53.132;6.370;2024-03-02T13:21:45;3.33;;;1.02;;
51943;SDS011;37969;53.132;6.370;2024-03-02T13:24:15;2.00;;;1.10;;
51943;SDS011;37969;53.132;6.370;2024-03-02T13:26:45;2.40;;;1.10;;
51943;SDS011;37969;53.132;6.370;2024-03-02T13:29:14;1.73;;;1.10;;
51943;SDS011;37969;53.132;6.370;2024-03-02T13:31:48;3.92;;;1.30;;
51943;SDS011;37969;53.132;6.370;2024-03-02T13:34:15;4.88;;;1.40;;
51943;SDS011;37969;53.132;6.370;2024-03-02T13:36:41;1.15;;;1.00;;
51943;SDS011;37969;53.132;6.370;2024-03-02T13:39:09;3.33;;;1.30;;
51943;SDS011;37969;53.132;6.370;2024-03-02T13:41:40;3.08;;;1.38;;
51943;SDS011;37969;53.132;6.370;2024-03-02T13:44:18;3.97;;;1.60;;
51943;SDS011;37969;53.132;6.370;2024-03-02T13:46:44;2.20;;;1.73;;
51943;SDS011;37969;53.132;6.370;2024-03-02T13:49:12;2.17;;;1.90;;
51943;SDS011;37969;53.132;6.370;2024-03-02T13:54:08;3.53;;;1.90;;
51943;SDS011;37969;53.132;6.370;2024-03-02T13:56:34;4.13;;;1.90;;
51943;SDS011;37969;53.132;6.370;2024-03-02T13:59:06;2.25;;;2.05;;
51943;SDS011;37969;53.132;6.370;2024-03-02T14:01:33;2.47;;;2.28;;
51943;SDS011;37969;53.132;6.370;2024-03-02T14:04:00;4.70;;;2.10;;
51943;SDS011;37969;53.132;6.370;2024-03-02T14:06:26;2.10;;;1.80;;
51943;SDS011;37969;53.132;6.370;2024-03-02T14:08:52;4.68;;;2.08;;
51943;SDS011;37969;53.132;6.370;2024-03-02T14:11:22;3.60;;;2.50;;
51943;SDS011;37969;53.132;6.370;2024-03-02T14:13:52;4.70;;;2.22;;
51943;SDS011;37969;53.132;6.370;2024-03-02T14:16:22;4.18;;;1.88;;
51943;SDS011;37969;53.132;6.370;2024-03-02T14:18:49;3.58;;;2.15;;
51943;SDS011;37969;53.132;6.370;2024-03-02T14:21:15;4.35;;;2.35;;
51943;SDS011;37969;53.132;6.370;2024-03-02T14:23:44;4.07;;;2.40;;
51943;SDS011;37969;53.132;6.370;2024-03-02T14:26:20;7.47;;;2.60;;
51943;SDS011;37969;53.132;6.370;2024-03-02T14:28:46;3.22;;;2.80;;
51943;SDS011;37969;53.132;6.370;2024-03-02T14:31:16;3.60;;;3.30;;
51943;SDS011;37969;53.132;6.370;2024-03-02T14:33:45;3.58;;;3.28;;
51943;SDS011;37969;53.132;6.370;2024-03-02T14:36:13;6.22;;;3.70;;
51943;SDS011;37969;53.132;6.370;2024-03-02T14:38:41;3.13;;;2.93;;
51943;SDS011;37969;53.132;6.370;2024-03-02T14:41:08;4.30;;;3.90;;
51943;SDS011;37969;53.132;6.370;2024-03-02T14:43:34;3.70;;;3.22;;
51943;SDS011;37969;53.132;6.370;2024-03-02T14:46:03;6.35;;;3.72;;
51943;SDS011;37969;53.132;6.370;2024-03-02T14:48:34;5.15;;;3.38;;
51943;SDS011;37969;53.132;6.370;2024-03-02T14:51:02;4.28;;;2.80;;
51943;SDS011;37969;53.132;6.370;2024-03-02T14:53:31;3.50;;;2.75;;
51943;SDS011;37969;53.132;6.370;2024-03-02T14:56:03;3.80;;;2.70;;
51943;SDS011;37969;53.132;6.370;2024-03-02T14:58:33;2.78;;;2.47;;
51943;SDS011;37969;53.132;6.370;2024-03-02T15:01:01;4.25;;;2.35;;
51943;SDS011;37969;53.132;6.370;2024-03-02T15:03:27;4.18;;;2.08;;
51943;SDS011;37969;53.132;6.370;2024-03-02T15:05:53;5.45;;;2.10;;
51943;SDS011;37969;53.132;6.370;2024-03-02T15:08:23;2.35;;;2.15;;
51943;SDS011;37969;53.132;6.370;2024-03-02T15:10:49;2.33;;;1.95;;
51943;SDS011;37969;53.132;6.370;2024-03-02T15:13:21;5.88;;;2.22;;
51943;SDS011;37969;53.132;6.370;2024-03-02T15:15:50;2.30;;;2.10;;